Nearby METAR Reports

 

EGNV - Tees-Side, United Kingdom
Distance from station: W 8mi, 13km
Updated: 20/11/2019 21:50
NOT Current
Few Clouds
Few Clouds
 Wind from SE
Wind: SE 12 mph , 19 km/h
Temperature: 4°C
Wind Chill: 0°C
Dew Point: 0°C
Humidity: 75%
Barometer: 1011 hPa
Clouds: Few Clouds
Visibility: 6 miles , 10 km
Cloud details: Few Clouds 1006 m
2019/11/20 21:50 EGNV 202150Z 14010KT 9999 FEW033 04/00 Q1011
EGXE - Leeming Raf, United Kingdom
Distance from station: SW 21mi, 34km
Updated: 21/11/2019 04:50
Haze, Mostly cloudy
Haze, Mostly cloudy
 Wind from N
Wind: N 2 mph , 4 km/h
Temperature: -1°C
Dew Point: -2°C
Humidity: 93%
Barometer: 1008 hPa
Summary: Haze
Clouds: Mostly cloudy
Visibility: 1 mile , 2 km
Cloud details: Mostly cloudy 7315 m
2019/11/21 04:50 EGXE 210450Z AUTO 35002KT 2400 HZ BKN240/// M01/M02 Q1008
 
EGXZ - Topcliffe Raf, United Kingdom
Distance from station: SSW 24mi, 38km
Updated: 21/11/2019 04:50
Haze, Few clouds
Haze, Few clouds
 Wind from E
Wind: E 7 mph , 11 km/h
Temperature: 0°C
Wind Chill: -4°C
Dew Point: -1°C
Humidity: 93%
Barometer: 1008 hPa
Summary: Haze
Clouds: Few Clouds
Visibility: 4 miles , 7 km
Cloud details: Few Clouds 7315 m
2019/11/21 04:50 EGXZ 210450Z AUTO 10006KT 7000 HZ FEW240/// 00/M01 Q1008
EGXD - Dishforth Raf, United Kingdom
Distance from station: SSW 29mi, 46km
Updated: 06/06/2016 10:50
NOT Current
Clear
Clear
 Wind from SSE
Wind: SSE 5 mph , 7 km/h
Temperature: 18°C
Dew Point: 11°C
Humidity: 64%
Barometer: 1023 hPa
Clouds: Clear
Visibility: 6 miles , 10 km
2016/06/06 09:50 EGXD 060950Z AUTO 16004KT 9999 // NCD 18/11 Q1023
 
EGXU - Linton-On-Ouse R, United Kingdom
Distance from station: S 33mi, 53km
Updated: 21/11/2019 04:50
Clear
Clear
 Wind from E
Wind: E 7 mph , 11 km/h
Temperature: 2°C
Wind Chill: -1°C
Dew Point: 0°C
Humidity: 87%
Barometer: 1008 hPa
Clouds: Clear
Visibility: 4 miles , 7 km
2019/11/21 04:50 EGXU 210450Z AUTO 09006KT 7000 // NCD 02/00 Q1008
EGNT - Newcastle, United Kingdom
Distance from station: NNW 39mi, 63km
Updated: 21/11/2019 05:20
Few Clouds
Few Clouds
 Wind from varies
Wind: varies 2 mph , 4 km/h
Temperature: 2°C
Dew Point: 1°C
Humidity: 93%
Barometer: 1009 hPa
Clouds: Few Clouds
Visibility: 6 miles , 10 km
Cloud details: Few Clouds 1219 m
2019/11/21 05:20 EGNT 210520Z VRB02KT 9999 FEW040 02/01 Q1009
 
EGNM - Leeds And Bradfo, United Kingdom
Distance from station: SSW 49mi, 79km
Updated: 21/11/2019 05:20
Few Clouds
Few Clouds
 Wind from E
Wind: E 8 mph , 13 km/h
Temperature: 1°C
Wind Chill: -3°C
Dew Point: 0°C
Humidity: 93%
Barometer: 1007 hPa
Clouds: Few Clouds
Visibility: 6 miles , 10 km
Cloud details: Few Clouds 549 m
2019/11/21 05:20 EGNM 210520Z 10007KT 9999 FEW018 01/00 Q1007